Flamingo Lodge, Florida
Current Conditions -  °F | °C
As of 8:58 AM on Monday 22 Dec 2014 (Local Time) from KHST Reporting Station
Clear Clear  
Wind Chill: 76°   Ceiling: Unl
Heat Index: 77°   Visibility: 10mi
Dew Point: 70°   Wind: 7mph
Humidity: 81%   Direction: 150°SSE
Pressure: 30.04"   Gusts: NA
Location:  25.3018°N, 80.7387°W
Report Text: KHST 221358Z AUTO 15006KT 10SM CLR 25/21 A3004 RMK AO2 SLP176 T02450210 $
Loading
Personal Weather Stations






























Interactive Weather Map New forecast layout! Learn more

10-Day Weather Forecast

Advertisements
Track Severe Weather on mobile